createdAt,value
2022-12-31T00:00:10.361Z,96.48
2022-12-31T00:02:37.268Z,96.69
2022-12-31T00:05:04.618Z,96.90
2022-12-31T00:09:57.801Z,96.94
2022-12-31T00:12:25.511Z,96.96
2022-12-31T00:14:52.308Z,96.96
2022-12-31T00:17:19.174Z,97.00
2022-12-31T00:19:45.903Z,97.12
2022-12-31T00:22:12.644Z,97.22
2022-12-31T00:24:39.466Z,97.34
2022-12-31T00:27:06.159Z,97.22
2022-12-31T00:30:16.288Z,97.29
2022-12-31T00:36:26.481Z,97.25
2022-12-31T00:38:55.424Z,97.15
2022-12-31T00:41:22.928Z,97.43
2022-12-31T00:43:50.393Z,97.41
2022-12-31T00:46:18.075Z,97.64
2022-12-31T00:48:45.326Z,97.86
2022-12-31T00:51:29.180Z,97.83
2022-12-31T00:53:57.327Z,97.88
2022-12-31T00:56:26.957Z,97.91
2022-12-31T00:58:54.427Z,98.18
2022-12-31T01:01:27.790Z,98.16
2022-12-31T01:03:58.791Z,98.20
2022-12-31T01:06:26.212Z,98.48
2022-12-31T01:08:55.282Z,98.53
2022-12-31T01:11:23.412Z,98.74
2022-12-31T01:13:54.362Z,98.82
2022-12-31T01:16:34.963Z,99.00
2022-12-31T01:19:06.064Z,99.09
2022-12-31T01:21:35.115Z,99.19
2022-12-31T01:24:02.110Z,99.36
2022-12-31T01:26:29.062Z,99.29
2022-12-31T01:28:55.863Z,99.53
2022-12-31T01:31:35.734Z,99.70
2022-12-31T01:34:22.790Z,100.00
2022-12-31T01:36:49.989Z,99.99
2022-12-31T01:39:22.008Z,100.00
2022-12-31T01:42:01.010Z,100.00
2022-12-31T01:44:27.672Z,100.00
2022-12-31T01:46:58.989Z,100.00
2022-12-31T01:49:40.920Z,100.00
2022-12-31T01:52:30.946Z,100.00
2022-12-31T01:55:15.174Z,100.00
2022-12-31T01:57:44.269Z,100.00
2022-12-31T02:00:11.715Z,100.00
2022-12-31T02:02:38.911Z,100.00
2022-12-31T02:05:28.026Z,100.00
2022-12-31T02:08:14.125Z,100.00
2022-12-31T02:10:40.938Z,100.00
2022-12-31T02:13:07.951Z,100.00
2022-12-31T02:16:05.192Z,100.00
2022-12-31T02:18:50.070Z,100.00
2022-12-31T02:21:42.324Z,100.00
2022-12-31T02:24:32.175Z,100.00
2022-12-31T02:27:01.988Z,100.00
2022-12-31T02:33:24.862Z,100.00
2022-12-31T02:40:20.052Z,100.00
2022-12-31T02:43:33.948Z,100.00
2022-12-31T02:46:43.893Z,100.00
2022-12-31T02:49:22.956Z,100.00
2022-12-31T02:52:25.316Z,100.00
2022-12-31T02:55:20.632Z,100.00
2022-12-31T02:58:21.533Z,100.00
2022-12-31T03:01:43.966Z,100.00
2022-12-31T03:04:36.396Z,100.00
2022-12-31T03:07:13.693Z,100.00
2022-12-31T03:09:41.943Z,100.00
2022-12-31T03:12:30.024Z,100.00
2022-12-31T03:15:22.387Z,100.00
2022-12-31T03:17:52.177Z,100.00
2022-12-31T03:27:35.629Z,100.00
2022-12-31T03:30:02.368Z,100.00
2022-12-31T03:32:29.171Z,100.00
2022-12-31T03:35:16.239Z,100.00
2022-12-31T03:37:43.643Z,100.00
2022-12-31T03:47:41.401Z,100.00
2022-12-31T03:50:46.955Z,100.00
2022-12-31T03:53:35.729Z,100.00
2022-12-31T03:56:24.983Z,100.00
2022-12-31T03:58:51.772Z,100.00
2022-12-31T04:01:19.447Z,100.00
2022-12-31T04:12:08.568Z,100.00
2022-12-31T04:14:50.598Z,100.00
2022-12-31T04:17:17.935Z,100.00
2022-12-31T04:27:50.198Z,100.00
2022-12-31T04:30:17.088Z,100.00
2022-12-31T04:32:44.117Z,100.00
2022-12-31T04:35:11.867Z,100.00
2022-12-31T04:38:21.637Z,100.00
2022-12-31T04:41:06.609Z,100.00
2022-12-31T04:43:33.282Z,100.00
2022-12-31T04:50:12.165Z,100.00
2022-12-31T04:53:03.269Z,100.00
2022-12-31T04:59:54.662Z,100.00
2022-12-31T05:02:21.590Z,100.00
2022-12-31T05:04:48.632Z,100.00
2022-12-31T05:07:19.706Z,100.00
2022-12-31T05:10:03.877Z,100.00
2022-12-31T05:12:30.717Z,100.00
2022-12-31T05:14:57.496Z,100.00
2022-12-31T05:17:24.268Z,100.00
2022-12-31T05:19:54.321Z,100.00
2022-12-31T05:23:17.438Z,100.00
2022-12-31T05:26:20.820Z,100.00
2022-12-31T05:28:47.529Z,100.00
2022-12-31T05:31:14.267Z,100.00
2022-12-31T05:38:26.125Z,100.00
2022-12-31T05:41:53.701Z,100.00
2022-12-31T05:48:01.050Z,100.00
2022-12-31T05:51:25.482Z,100.00
2022-12-31T05:53:59.679Z,100.00
2022-12-31T06:00:18.733Z,100.00
2022-12-31T06:03:17.807Z,100.00
2022-12-31T06:05:44.623Z,100.00
2022-12-31T06:08:12.497Z,100.00
2022-12-31T06:10:40.094Z,100.00
2022-12-31T06:13:07.170Z,100.00
2022-12-31T06:15:36.915Z,100.00
2022-12-31T06:18:03.729Z,100.00
2022-12-31T06:20:30.468Z,100.00
2022-12-31T06:22:57.276Z,100.00
2022-12-31T06:25:23.988Z,100.00
2022-12-31T06:27:55.112Z,100.00
2022-12-31T06:31:15.723Z,100.00
2022-12-31T06:33:42.797Z,100.00
2022-12-31T06:36:14.413Z,100.00
2022-12-31T06:38:42.459Z,100.00
2022-12-31T06:41:14.237Z,100.00
2022-12-31T06:43:42.423Z,100.00
2022-12-31T06:46:12.163Z,100.00
2022-12-31T06:48:39.632Z,100.00
2022-12-31T06:51:16.611Z,100.00
2022-12-31T06:53:45.166Z,100.00
2022-12-31T06:56:18.602Z,100.00
2022-12-31T06:58:46.378Z,100.00
2022-12-31T07:01:28.467Z,100.00
2022-12-31T07:08:16.477Z,100.00
2022-12-31T07:10:59.963Z,100.00
2022-12-31T07:13:38.643Z,100.00
2022-12-31T07:16:16.619Z,100.00
2022-12-31T07:19:57.819Z,100.00
2022-12-31T07:22:25.510Z,100.00
2022-12-31T07:24:52.667Z,100.00
2022-12-31T07:27:37.803Z,100.00
2022-12-31T07:30:09.814Z,100.00
2022-12-31T07:32:42.739Z,100.00
2022-12-31T07:35:35.279Z,100.00
2022-12-31T07:38:26.945Z,100.00
2022-12-31T07:41:31.234Z,100.00
2022-12-31T07:48:35.329Z,100.00
2022-12-31T07:51:02.258Z,100.00
2022-12-31T07:54:14.399Z,100.00
2022-12-31T07:56:48.195Z,100.00
2022-12-31T07:59:42.794Z,100.00
2022-12-31T08:02:14.060Z,100.00
2022-12-31T08:04:54.025Z,100.00
2022-12-31T08:07:58.181Z,100.00
2022-12-31T08:10:33.224Z,100.00
2022-12-31T08:13:06.510Z,100.00
2022-12-31T08:15:36.956Z,100.00
2022-12-31T08:22:41.645Z,100.00
2022-12-31T08:26:01.330Z,100.00
2022-12-31T08:28:33.771Z,100.00
2022-12-31T08:31:10.827Z,100.00
2022-12-31T08:45:31.527Z,100.00
2022-12-31T08:48:26.691Z,100.00
2022-12-31T08:51:20.703Z,100.00
2022-12-31T08:53:48.461Z,100.00
2022-12-31T09:04:08.817Z,100.00
2022-12-31T09:10:57.908Z,100.00
2022-12-31T09:13:30.360Z,100.00
2022-12-31T09:16:28.507Z,100.00
2022-12-31T09:18:55.276Z,100.00
2022-12-31T09:21:22.218Z,100.00
2022-12-31T09:23:49.806Z,100.00
2022-12-31T09:26:34.775Z,100.00
2022-12-31T09:29:22.720Z,100.00
2022-12-31T09:32:17.353Z,100.00
2022-12-31T09:34:58.570Z,100.00
2022-12-31T09:37:38.593Z,100.00
2022-12-31T09:40:40.202Z,100.00
2022-12-31T09:43:09.684Z,100.00
2022-12-31T09:46:09.650Z,100.00
2022-12-31T09:48:45.433Z,100.00
2022-12-31T09:51:56.415Z,100.00
2022-12-31T09:54:29.161Z,100.00
2022-12-31T09:56:59.283Z,100.00
2022-12-31T10:00:04.308Z,100.00
2022-12-31T10:02:55.352Z,100.00
2022-12-31T10:05:27.994Z,100.00
2022-12-31T10:08:20.998Z,100.00
2022-12-31T10:10:59.032Z,100.00
2022-12-31T10:13:28.624Z,100.00
2022-12-31T10:16:20.191Z,100.00
2022-12-31T10:19:15.125Z,100.00
2022-12-31T10:22:23.390Z,100.00
2022-12-31T10:25:14.708Z,100.00
2022-12-31T10:28:41.070Z,100.00
2022-12-31T10:31:33.719Z,100.00
2022-12-31T10:34:06.179Z,100.00
2022-12-31T10:36:47.729Z,100.00
2022-12-31T10:39:32.200Z,100.00
2022-12-31T10:41:58.811Z,100.00
2022-12-31T10:44:44.002Z,100.00
2022-12-31T10:47:42.828Z,100.00
2022-12-31T10:50:39.184Z,100.00
2022-12-31T10:53:18.323Z,100.00
2022-12-31T10:55:54.477Z,100.00
2022-12-31T10:58:52.784Z,100.00
2022-12-31T11:01:33.145Z,100.00
2022-12-31T11:04:35.395Z,100.00
2022-12-31T11:07:15.363Z,100.00
2022-12-31T11:10:21.907Z,100.00
2022-12-31T11:12:57.541Z,100.00
2022-12-31T11:16:01.328Z,100.00
2022-12-31T11:22:44.705Z,100.00
2022-12-31T11:25:11.405Z,100.00
2022-12-31T11:28:05.978Z,100.00
2022-12-31T11:31:01.832Z,100.00
2022-12-31T11:33:50.714Z,100.00
2022-12-31T11:36:32.011Z,100.00
2022-12-31T11:39:01.689Z,100.00
2022-12-31T11:41:54.478Z,100.00
2022-12-31T11:44:48.408Z,100.00
2022-12-31T11:47:33.580Z,100.00
2022-12-31T11:50:29.305Z,100.00
2022-12-31T11:53:36.341Z,100.00
2022-12-31T11:56:18.500Z,100.00
2022-12-31T11:58:54.938Z,100.00
2022-12-31T12:01:26.618Z,100.00
2022-12-31T12:03:53.539Z,100.00
2022-12-31T12:06:41.155Z,100.00
2022-12-31T12:09:17.011Z,100.00
2022-12-31T12:11:43.818Z,100.00
2022-12-31T12:14:35.955Z,100.00
2022-12-31T12:17:14.712Z,100.00
2022-12-31T12:19:56.942Z,100.00
2022-12-31T12:22:32.842Z,100.00
2022-12-31T12:25:22.584Z,100.00
2022-12-31T12:27:50.055Z,100.00
2022-12-31T12:30:27.071Z,100.00
2022-12-31T12:33:04.811Z,100.00
2022-12-31T12:35:36.122Z,100.00
2022-12-31T12:38:13.812Z,100.00
2022-12-31T12:40:52.546Z,100.00
2022-12-31T12:43:39.567Z,100.00
2022-12-31T12:46:30.587Z,100.00
2022-12-31T12:48:58.466Z,100.00
2022-12-31T12:51:44.199Z,100.00
2022-12-31T12:54:20.177Z,100.00
2022-12-31T12:57:12.087Z,100.00
2022-12-31T13:00:00.592Z,100.00
2022-12-31T13:02:39.466Z,100.00
2022-12-31T13:05:46.495Z,100.00
2022-12-31T13:08:15.873Z,100.00
2022-12-31T13:11:06.343Z,100.00
2022-12-31T13:14:04.699Z,100.00
2022-12-31T13:16:42.870Z,100.00
2022-12-31T13:19:24.303Z,100.00
2022-12-31T13:22:34.714Z,100.00
2022-12-31T13:25:32.084Z,100.00
2022-12-31T13:31:40.461Z,100.00
2022-12-31T13:34:18.523Z,100.00
2022-12-31T13:36:48.795Z,100.00
2022-12-31T13:39:20.580Z,100.00
2022-12-31T13:42:01.250Z,100.00
2022-12-31T13:44:49.634Z,100.00
2022-12-31T13:47:22.516Z,100.00
2022-12-31T13:49:52.990Z,100.00
2022-12-31T13:52:42.241Z,100.00
2022-12-31T13:55:31.608Z,100.00
2022-12-31T13:58:05.052Z,100.00
2022-12-31T14:00:45.573Z,100.00
2022-12-31T14:03:43.923Z,100.00
2022-12-31T14:06:54.889Z,100.00
2022-12-31T14:09:28.798Z,100.00
2022-12-31T14:12:23.076Z,100.00
2022-12-31T14:14:59.019Z,100.00
2022-12-31T14:17:40.396Z,100.00
2022-12-31T14:20:49.221Z,100.00
2022-12-31T14:23:53.444Z,100.00
2022-12-31T14:26:43.480Z,100.00
2022-12-31T14:29:10.225Z,100.00
2022-12-31T14:31:49.377Z,100.00
2022-12-31T14:34:30.655Z,100.00
2022-12-31T14:37:04.102Z,100.00
2022-12-31T14:39:55.660Z,100.00
2022-12-31T14:42:33.965Z,100.00
2022-12-31T14:45:18.604Z,100.00
2022-12-31T14:48:11.459Z,100.00
2022-12-31T14:50:38.811Z,100.00
2022-12-31T14:53:08.650Z,100.00
2022-12-31T14:55:41.021Z,100.00
2022-12-31T14:58:30.200Z,100.00
2022-12-31T15:01:00.021Z,100.00
2022-12-31T15:03:44.719Z,100.00
2022-12-31T15:06:18.365Z,100.00
2022-12-31T15:09:12.116Z,100.00
2022-12-31T15:12:05.238Z,100.00
2022-12-31T15:14:58.073Z,100.00
2022-12-31T15:17:36.934Z,100.00
2022-12-31T15:20:41.158Z,100.00
2022-12-31T15:23:23.568Z,100.00
2022-12-31T15:26:00.642Z,100.00
2022-12-31T15:28:39.663Z,100.00
2022-12-31T15:31:18.822Z,100.00
2022-12-31T15:34:06.705Z,100.00
2022-12-31T15:36:39.549Z,100.00
2022-12-31T15:39:40.783Z,100.00
2022-12-31T15:42:47.259Z,100.00
2022-12-31T15:45:26.196Z,100.00
2022-12-31T15:47:58.914Z,100.00
2022-12-31T15:50:26.298Z,100.00
2022-12-31T15:53:26.904Z,100.00
2022-12-31T15:56:49.196Z,100.00
2022-12-31T15:59:18.484Z,100.00
2022-12-31T16:01:46.901Z,100.00
2022-12-31T16:04:29.438Z,100.00
2022-12-31T16:07:01.497Z,100.00
2022-12-31T16:10:13.256Z,100.00
2022-12-31T16:12:44.586Z,100.00
2022-12-31T16:15:24.634Z,100.00
2022-12-31T16:18:03.540Z,100.00
2022-12-31T16:20:33.753Z,100.00
2022-12-31T16:23:03.456Z,100.00
2022-12-31T16:25:33.387Z,100.00
2022-12-31T16:28:02.736Z,100.00
2022-12-31T16:30:32.207Z,100.00
2022-12-31T16:33:15.566Z,100.00
2022-12-31T16:35:42.950Z,100.00
2022-12-31T16:38:19.053Z,100.00
2022-12-31T16:41:00.932Z,100.00
2022-12-31T16:43:37.422Z,100.00
2022-12-31T16:46:44.217Z,100.00
2022-12-31T16:49:21.320Z,100.00
2022-12-31T16:51:49.733Z,100.00
2022-12-31T16:54:40.817Z,100.00
2022-12-31T16:57:10.992Z,100.00
2022-12-31T17:00:24.346Z,100.00
2022-12-31T17:03:09.657Z,100.00
2022-12-31T17:05:54.097Z,100.00
2022-12-31T17:08:51.435Z,100.00
2022-12-31T17:11:28.903Z,100.00
2022-12-31T17:14:00.853Z,100.00
2022-12-31T17:16:29.109Z,100.00
2022-12-31T17:18:56.014Z,100.00
2022-12-31T17:25:26.260Z,100.00
2022-12-31T17:28:00.430Z,100.00
2022-12-31T17:30:29.945Z,100.00
2022-12-31T17:33:03.905Z,100.00
2022-12-31T17:35:33.428Z,100.00
2022-12-31T17:38:27.974Z,100.00
2022-12-31T17:41:06.614Z,100.00
2022-12-31T17:43:36.379Z,100.00
2022-12-31T17:46:11.008Z,100.00
2022-12-31T17:48:37.901Z,100.00
2022-12-31T17:51:05.930Z,100.00
2022-12-31T17:53:32.677Z,100.00
2022-12-31T17:56:05.335Z,100.00
2022-12-31T17:58:41.160Z,100.00
2022-12-31T18:01:09.867Z,100.00
2022-12-31T18:03:38.719Z,100.00
2022-12-31T18:06:05.579Z,100.00
2022-12-31T18:08:32.392Z,100.00
2022-12-31T18:10:59.214Z,100.00
2022-12-31T18:13:27.732Z,100.00
2022-12-31T18:15:55.349Z,100.00
2022-12-31T18:18:29.096Z,100.00
2022-12-31T18:21:11.595Z,100.00
2022-12-31T18:23:40.466Z,100.00
2022-12-31T18:26:10.063Z,100.00
2022-12-31T18:28:36.800Z,100.00
2022-12-31T18:31:03.556Z,100.00
2022-12-31T18:33:30.589Z,100.00
2022-12-31T18:36:08.661Z,100.00
2022-12-31T18:38:35.820Z,100.00
2022-12-31T18:41:02.864Z,100.00
2022-12-31T18:43:29.586Z,100.00
2022-12-31T18:45:56.545Z,100.00
2022-12-31T18:48:23.345Z,100.00
2022-12-31T18:50:50.614Z,100.00
2022-12-31T18:53:23.530Z,100.00
2022-12-31T18:55:56.983Z,100.00
2022-12-31T18:58:24.489Z,100.00
2022-12-31T19:00:52.206Z,100.00
2022-12-31T19:03:22.454Z,100.00
2022-12-31T19:05:51.205Z,100.00
2022-12-31T19:08:19.978Z,100.00
2022-12-31T19:11:46.725Z,100.00
2022-12-31T19:14:20.545Z,100.00
2022-12-31T19:17:32.083Z,100.00
2022-12-31T19:20:04.318Z,100.00
2022-12-31T19:22:36.226Z,100.00
2022-12-31T19:25:06.054Z,100.00
2022-12-31T19:27:32.783Z,100.00
2022-12-31T19:30:00.729Z,100.00
2022-12-31T19:32:27.462Z,100.00
2022-12-31T19:34:54.229Z,100.00
2022-12-31T19:37:21.124Z,100.00
2022-12-31T19:39:48.353Z,100.00
2022-12-31T19:42:17.785Z,100.00
2022-12-31T19:44:44.633Z,100.00
2022-12-31T19:47:14.459Z,100.00
2022-12-31T19:49:41.225Z,100.00
2022-12-31T19:52:09.516Z,100.00
2022-12-31T19:54:36.594Z,100.00
2022-12-31T19:57:06.376Z,100.00
2022-12-31T19:59:33.115Z,100.00
2022-12-31T20:02:03.199Z,100.00
2022-12-31T20:04:30.177Z,100.00
2022-12-31T20:06:56.896Z,100.00
2022-12-31T20:09:23.646Z,100.00
2022-12-31T20:11:50.438Z,100.00
2022-12-31T20:14:17.288Z,100.00
2022-12-31T20:16:44.063Z,100.00
2022-12-31T20:19:11.045Z,100.00
2022-12-31T20:21:39.329Z,100.00
2022-12-31T20:24:06.506Z,100.00
2022-12-31T20:26:33.245Z,100.00
2022-12-31T20:29:00.090Z,100.00
2022-12-31T20:31:26.917Z,100.00
2022-12-31T20:33:54.402Z,100.00
2022-12-31T20:36:22.145Z,100.00
2022-12-31T20:38:51.840Z,100.00
2022-12-31T20:41:21.875Z,100.00
2022-12-31T20:43:49.168Z,100.00
2022-12-31T20:46:22.031Z,100.00
2022-12-31T20:48:51.269Z,100.00
2022-12-31T20:51:19.618Z,100.00
2022-12-31T20:53:57.716Z,100.00
2022-12-31T20:56:27.669Z,100.00
2022-12-31T20:58:54.785Z,100.00
2022-12-31T21:01:22.078Z,100.00
2022-12-31T21:04:06.296Z,100.00
2022-12-31T21:06:35.569Z,100.00
2022-12-31T21:09:07.057Z,100.00
2022-12-31T21:11:52.785Z,100.00
2022-12-31T21:14:20.134Z,100.00
2022-12-31T21:16:47.057Z,100.00
2022-12-31T21:19:13.814Z,100.00
2022-12-31T21:21:41.123Z,100.00
2022-12-31T21:24:08.355Z,100.00
2022-12-31T21:26:35.209Z,100.00
2022-12-31T21:29:02.233Z,100.00
2022-12-31T21:31:29.101Z,100.00
2022-12-31T21:33:55.873Z,100.00
2022-12-31T21:36:38.900Z,100.00
2022-12-31T21:39:05.667Z,100.00
2022-12-31T21:41:51.059Z,100.00
2022-12-31T21:44:21.744Z,100.00
2022-12-31T21:47:24.824Z,100.00
2022-12-31T21:49:36.405Z,100.00
2022-12-31T21:52:40.748Z,100.00
2022-12-31T21:55:26.513Z,100.00
2022-12-31T21:58:25.361Z,100.00
2022-12-31T22:00:59.060Z,100.00
2022-12-31T22:03:45.284Z,100.00
2022-12-31T22:06:20.708Z,100.00
2022-12-31T22:08:57.274Z,100.00
2022-12-31T22:11:27.259Z,100.00
2022-12-31T22:14:14.316Z,100.00
2022-12-31T22:16:41.293Z,100.00
2022-12-31T22:19:08.131Z,100.00
2022-12-31T22:21:35.955Z,100.00
2022-12-31T22:24:03.213Z,100.00
2022-12-31T22:26:29.953Z,100.00
2022-12-31T22:29:00.208Z,100.00
2022-12-31T22:31:33.348Z,100.00
2022-12-31T22:34:00.221Z,100.00
2022-12-31T22:36:27.048Z,100.00
2022-12-31T22:38:58.359Z,100.00
2022-12-31T22:41:26.526Z,100.00
2022-12-31T22:44:02.630Z,100.00
2022-12-31T22:46:30.916Z,100.00
2022-12-31T22:48:59.288Z,100.00
2022-12-31T22:51:54.946Z,100.00
2022-12-31T22:54:13.933Z,100.00
2022-12-31T22:56:40.992Z,100.00
2022-12-31T22:59:07.771Z,100.00
2022-12-31T23:01:56.176Z,100.00
2022-12-31T23:04:24.651Z,100.00
2022-12-31T23:07:26.478Z,100.00
2022-12-31T23:10:32.222Z,100.00
2022-12-31T23:12:59.100Z,100.00
2022-12-31T23:15:44.547Z,100.00
2022-12-31T23:18:29.797Z,100.00
2022-12-31T23:21:14.727Z,100.00
2022-12-31T23:23:41.483Z,100.00
2022-12-31T23:26:28.249Z,100.00
2022-12-31T23:28:54.969Z,100.00
2022-12-31T23:31:21.717Z,100.00
2022-12-31T23:33:48.433Z,100.00
2022-12-31T23:36:15.239Z,100.00
2022-12-31T23:38:42.005Z,100.00
2022-12-31T23:41:14.000Z,100.00
2022-12-31T23:43:40.742Z,100.00
2022-12-31T23:46:09.026Z,100.00
2022-12-31T23:48:35.806Z,100.00
2022-12-31T23:51:09.040Z,100.00
2022-12-31T23:53:38.568Z,100.00
2022-12-31T23:56:15.015Z,100.00
2022-12-31T23:58:47.937Z,100.00
